TOM821 LTAI-EGKK
Flight info
| Callsign | TOM821 |
|---|---|
| Flight time | 4h 16m |
| Altitude | 34000 |
| Route | EKSEN UT337 EKNUD UQ26 DIGBO UL615 VADEN DCT OSTEX DCT UTEKA DCT IRGOR/N0449F360 DCT KOTUS DCT BABIT DCT SOGMO DCT SASAL DCT OBFEZ DCT SITNI DCT RENKA DCT INBED DCT BOMBI DCT DENUT L610 TEBRA |
| Aircraft | B738/M-SDFGHIJ1RWXYZ/LB1 |
Departure
| Time | 2026-05-07 19:24 |
|---|---|
| Airport | Antalya International Airport (LTAI) |
Arrival
| Time | 2026-05-07 23:40 |
|---|---|
| Airport | London Gatwick Airport (EGKK) |
| Time | Latitude | Longitude | Altitude | Speed | Heading |
|---|---|---|---|---|---|
| 2026-05-07 18:08 | 36.89706 | 30.80160 | 191 ft | 0 kts | 352° |
| 2026-05-07 19:13 | 36.89685 | 30.80164 | 204 ft | 4 kts | 347° |
| 2026-05-07 19:14 | 36.89659 | 30.80173 | 204 ft | 4 kts | 342° |
| 2026-05-07 19:14 | 36.89633 | 30.80183 | 203 ft | 4 kts | 345° |
| 2026-05-07 19:14 | 36.89610 | 30.80187 | 202 ft | 4 kts | 34° |
| 2026-05-07 19:14 | 36.89599 | 30.80165 | 195 ft | 4 kts | 84° |
| 2026-05-07 19:15 | 36.89604 | 30.80134 | 201 ft | 4 kts | 109° |
| 2026-05-07 19:15 | 36.89607 | 30.80122 | 202 ft | 0 kts | 97° |
| 2026-05-07 19:19 | 36.89607 | 30.80123 | 202 ft | 2 kts | 97° |
| 2026-05-07 19:19 | 36.89595 | 30.80248 | 191 ft | 17 kts | 96° |
| 2026-05-07 19:19 | 36.89583 | 30.80382 | 191 ft | 16 kts | 96° |
| 2026-05-07 19:19 | 36.89571 | 30.80523 | 191 ft | 15 kts | 96° |
| 2026-05-07 19:20 | 36.89558 | 30.80645 | 194 ft | 12 kts | 109° |
| 2026-05-07 19:20 | 36.89480 | 30.80680 | 202 ft | 14 kts | 188° |
| 2026-05-07 19:20 | 36.89373 | 30.80665 | 191 ft | 16 kts | 186° |
| 2026-05-07 19:20 | 36.89251 | 30.80648 | 193 ft | 19 kts | 186° |
| 2026-05-07 19:21 | 36.89114 | 30.80628 | 191 ft | 21 kts | 186° |
| 2026-05-07 19:21 | 36.88963 | 30.80608 | 204 ft | 23 kts | 186° |
| 2026-05-07 19:21 | 36.88801 | 30.80586 | 202 ft | 24 kts | 186° |
| 2026-05-07 19:21 | 36.88631 | 30.80562 | 192 ft | 25 kts | 186° |
| 2026-05-07 19:22 | 36.88452 | 30.80536 | 199 ft | 26 kts | 188° |
| 2026-05-07 19:22 | 36.88275 | 30.80513 | 199 ft | 25 kts | 186° |
| 2026-05-07 19:22 | 36.88167 | 30.80507 | 202 ft | 10 kts | 155° |
| 2026-05-07 19:22 | 36.88137 | 30.80591 | 197 ft | 13 kts | 97° |
| 2026-05-07 19:23 | 36.88130 | 30.80702 | 189 ft | 8 kts | 82° |
| 2026-05-07 19:23 | 36.88166 | 30.80735 | 197 ft | 6 kts | 4° |
| 2026-05-07 19:23 | 36.88206 | 30.80739 | 192 ft | 8 kts | 6° |
| 2026-05-07 19:23 | 36.88476 | 30.80775 | 196 ft | 74 kts | 6° |
| 2026-05-07 19:24 | 36.89213 | 30.80873 | 190 ft | 137 kts | 6° |
| 2026-05-07 19:24 | 36.90331 | 30.81058 | 317 ft | 177 kts | 10° |
| 2026-05-07 19:24 | 36.91517 | 30.81292 | 1205 ft | 171 kts | 4° |
| 2026-05-07 19:24 | 36.92713 | 30.81163 | 1897 ft | 177 kts | 351° |
| 2026-05-07 19:25 | 36.93940 | 30.80933 | 2615 ft | 178 kts | 351° |
| 2026-05-07 19:25 | 36.95164 | 30.80716 | 3379 ft | 179 kts | 351° |
| 2026-05-07 19:25 | 36.96421 | 30.80498 | 3962 ft | 190 kts | 352° |
| 2026-05-07 19:25 | 36.97828 | 30.80264 | 4181 ft | 216 kts | 352° |
| 2026-05-07 19:26 | 36.99397 | 30.80010 | 4400 ft | 238 kts | 353° |
| 2026-05-07 19:26 | 37.01082 | 30.79747 | 4940 ft | 248 kts | 353° |
| 2026-05-07 19:26 | 37.02789 | 30.79485 | 5777 ft | 246 kts | 353° |
| 2026-05-07 19:26 | 37.04531 | 30.79222 | 6355 ft | 259 kts | 353° |
| 2026-05-07 19:27 | 37.06349 | 30.78954 | 6999 ft | 266 kts | 354° |
| 2026-05-07 19:27 | 37.08202 | 30.78683 | 7747 ft | 269 kts | 354° |
| 2026-05-07 19:27 | 37.10070 | 30.78411 | 8507 ft | 271 kts | 354° |
| 2026-05-07 19:27 | 37.11950 | 30.78139 | 9313 ft | 272 kts | 354° |
| 2026-05-07 19:28 | 37.13844 | 30.77912 | 9918 ft | 276 kts | 2° |
| 2026-05-07 19:28 | 37.15740 | 30.78272 | 10220 ft | 277 kts | 9° |
| 2026-05-07 19:28 | 37.17723 | 30.78499 | 10421 ft | 299 kts | 2° |
| 2026-05-07 19:28 | 37.19880 | 30.78538 | 10602 ft | 321 kts | 0° |
| 2026-05-07 19:29 | 37.22187 | 30.78543 | 10801 ft | 341 kts | 0° |
| 2026-05-07 19:29 | 37.24591 | 30.78554 | 11278 ft | 350 kts | 0° |
| 2026-05-07 19:29 | 37.27002 | 30.78579 | 11942 ft | 352 kts | 0° |
| 2026-05-07 19:29 | 37.29463 | 30.78619 | 12623 ft | 356 kts | 0° |
| 2026-05-07 19:30 | 37.31953 | 30.78672 | 13229 ft | 360 kts | 0° |
| 2026-05-07 19:30 | 37.34478 | 30.78735 | 13840 ft | 365 kts | 0° |
| 2026-05-07 19:30 | 37.37030 | 30.78802 | 14422 ft | 368 kts | 360° |
| 2026-05-07 19:30 | 37.39597 | 30.78873 | 15029 ft | 370 kts | 360° |
| 2026-05-07 19:31 | 37.42179 | 30.78946 | 15659 ft | 372 kts | 359° |
| 2026-05-07 19:31 | 37.44776 | 30.79022 | 16262 ft | 374 kts | 359° |
| 2026-05-07 19:31 | 37.47387 | 30.79098 | 16817 ft | 377 kts | 359° |
| 2026-05-07 19:31 | 37.50021 | 30.79173 | 17407 ft | 379 kts | 359° |
| 2026-05-07 19:32 | 37.52668 | 30.79249 | 18025 ft | 382 kts | 359° |
| 2026-05-07 19:32 | 37.55333 | 30.79325 | 18571 ft | 385 kts | 358° |
| 2026-05-07 19:32 | 37.58022 | 30.79402 | 19046 ft | 388 kts | 359° |
| 2026-05-07 19:32 | 37.60730 | 30.79480 | 19574 ft | 390 kts | 358° |
| 2026-05-07 19:33 | 37.63451 | 30.79558 | 20091 ft | 392 kts | 358° |
| 2026-05-07 19:33 | 37.66189 | 30.79637 | 20594 ft | 395 kts | 358° |
| 2026-05-07 19:33 | 37.68946 | 30.79718 | 21056 ft | 398 kts | 358° |
| 2026-05-07 19:33 | 37.71720 | 30.79799 | 21497 ft | 400 kts | 358° |
| 2026-05-07 19:34 | 37.74510 | 30.79880 | 21920 ft | 402 kts | 359° |
| 2026-05-07 19:34 | 37.77315 | 30.79961 | 22356 ft | 405 kts | 359° |
| 2026-05-07 19:34 | 37.80143 | 30.80043 | 22828 ft | 406 kts | 359° |
| 2026-05-07 19:34 | 37.82971 | 30.80125 | 23335 ft | 408 kts | 359° |
| 2026-05-07 19:35 | 37.85828 | 30.80208 | 23672 ft | 413 kts | 359° |
| 2026-05-07 19:35 | 37.88715 | 30.80293 | 24013 ft | 416 kts | 359° |
| 2026-05-07 19:35 | 37.91614 | 30.80377 | 24383 ft | 418 kts | 359° |
| 2026-05-07 19:35 | 37.94528 | 30.80462 | 24759 ft | 419 kts | 359° |
| 2026-05-07 19:36 | 37.97449 | 30.80548 | 25117 ft | 421 kts | 359° |
| 2026-05-07 19:36 | 38.00385 | 30.80633 | 25462 ft | 423 kts | 359° |
| 2026-05-07 19:36 | 38.03336 | 30.80719 | 25797 ft | 425 kts | 359° |
| 2026-05-07 19:36 | 38.06301 | 30.80806 | 26106 ft | 427 kts | 359° |
| 2026-05-07 19:37 | 38.09279 | 30.80893 | 26448 ft | 429 kts | 359° |
| 2026-05-07 19:37 | 38.12268 | 30.80972 | 26800 ft | 430 kts | 358° |
| 2026-05-07 19:37 | 38.15248 | 30.80770 | 27141 ft | 429 kts | 351° |
| 2026-05-07 19:37 | 38.18171 | 30.80309 | 27448 ft | 430 kts | 350° |
| 2026-05-07 19:38 | 38.21141 | 30.79778 | 27733 ft | 432 kts | 350° |
| 2026-05-07 19:38 | 38.24124 | 30.79234 | 28008 ft | 434 kts | 350° |
| 2026-05-07 19:38 | 38.27122 | 30.78699 | 28326 ft | 435 kts | 350° |
| 2026-05-07 19:38 | 38.30119 | 30.78179 | 28731 ft | 434 kts | 350° |
| 2026-05-07 19:39 | 38.33102 | 30.77674 | 29242 ft | 431 kts | 350° |
| 2026-05-07 19:39 | 38.36062 | 30.77181 | 29777 ft | 428 kts | 350° |
| 2026-05-07 19:39 | 38.39009 | 30.76695 | 30249 ft | 426 kts | 350° |
| 2026-05-07 19:39 | 38.41939 | 30.76210 | 30587 ft | 423 kts | 350° |
| 2026-05-07 19:40 | 38.44833 | 30.75731 | 31108 ft | 417 kts | 350° |
| 2026-05-07 19:40 | 38.47715 | 30.75251 | 31344 ft | 419 kts | 350° |
| 2026-05-07 19:40 | 38.50616 | 30.74769 | 31531 ft | 422 kts | 350° |
| 2026-05-07 19:40 | 38.53531 | 30.74285 | 31747 ft | 423 kts | 350° |
| 2026-05-07 19:41 | 38.56449 | 30.73801 | 32033 ft | 423 kts | 350° |
| 2026-05-07 19:41 | 38.59360 | 30.73318 | 32377 ft | 421 kts | 350° |
| 2026-05-07 19:41 | 38.62258 | 30.72836 | 32743 ft | 419 kts | 349° |
| 2026-05-07 19:41 | 38.65145 | 30.72354 | 33067 ft | 418 kts | 349° |
| 2026-05-07 19:42 | 38.68030 | 30.71872 | 33346 ft | 418 kts | 349° |
| 2026-05-07 19:42 | 38.70911 | 30.71391 | 33641 ft | 417 kts | 349° |
| 2026-05-07 19:42 | 38.73786 | 30.70912 | 33950 ft | 416 kts | 349° |
| 2026-05-07 19:42 | 38.76647 | 30.70433 | 34223 ft | 413 kts | 349° |
| 2026-05-07 19:43 | 38.82368 | 30.69473 | 34196 ft | 414 kts | 348° |
| 2026-05-07 19:43 | 38.87822 | 30.67406 | 34185 ft | 407 kts | 332° |
| 2026-05-07 19:44 | 38.92855 | 30.64099 | 34200 ft | 406 kts | 331° |
| 2026-05-07 19:44 | 38.97882 | 30.60780 | 34205 ft | 406 kts | 332° |
| 2026-05-07 19:45 | 39.02916 | 30.57483 | 34193 ft | 406 kts | 332° |
| 2026-05-07 19:45 | 39.07958 | 30.54187 | 34187 ft | 406 kts | 332° |
| 2026-05-07 19:46 | 39.12995 | 30.50895 | 34191 ft | 406 kts | 332° |
| 2026-05-07 19:46 | 39.18033 | 30.47597 | 34185 ft | 406 kts | 332° |
| 2026-05-07 19:47 | 39.23069 | 30.44294 | 34188 ft | 406 kts | 332° |
| 2026-05-07 19:47 | 39.28077 | 30.41003 | 34185 ft | 407 kts | 332° |
| 2026-05-07 19:48 | 39.33120 | 30.37684 | 34178 ft | 407 kts | 332° |
| 2026-05-07 19:48 | 39.38168 | 30.34357 | 34183 ft | 407 kts | 332° |
| 2026-05-07 19:49 | 39.43214 | 30.31025 | 34184 ft | 407 kts | 332° |
| 2026-05-07 19:49 | 39.48264 | 30.27685 | 34178 ft | 408 kts | 332° |
| 2026-05-07 19:50 | 39.53424 | 30.24619 | 34176 ft | 409 kts | 336° |
| 2026-05-07 19:50 | 39.58703 | 30.21854 | 34182 ft | 409 kts | 336° |
| 2026-05-07 19:51 | 39.63983 | 30.19083 | 34183 ft | 410 kts | 336° |
| 2026-05-07 19:51 | 39.69261 | 30.16277 | 34182 ft | 410 kts | 336° |
| 2026-05-07 19:52 | 39.74534 | 30.13454 | 34177 ft | 410 kts | 336° |
| 2026-05-07 19:52 | 39.79809 | 30.10624 | 34162 ft | 410 kts | 336° |
| 2026-05-07 19:53 | 39.85084 | 30.07789 | 34164 ft | 410 kts | 336° |
| 2026-05-07 19:53 | 39.90354 | 30.04953 | 34162 ft | 410 kts | 336° |
| 2026-05-07 19:54 | 39.95618 | 30.02116 | 34159 ft | 409 kts | 336° |
| 2026-05-07 19:54 | 40.00874 | 29.99276 | 34148 ft | 409 kts | 336° |
| 2026-05-07 19:55 | 40.06086 | 29.96452 | 34154 ft | 408 kts | 336° |
| 2026-05-07 19:55 | 40.11323 | 29.93612 | 34147 ft | 407 kts | 336° |
| 2026-05-07 19:56 | 40.16546 | 29.90773 | 34149 ft | 407 kts | 336° |
| 2026-05-07 19:56 | 40.20917 | 29.88393 | 34147 ft | 406 kts | 336° |
| 2026-05-07 19:57 | 40.26134 | 29.85551 | 34142 ft | 406 kts | 336° |
| 2026-05-07 19:57 | 40.31369 | 29.82692 | 34238 ft | 411 kts | 336° |
| 2026-05-07 19:58 | 40.33929 | 29.81305 | 35357 ft | 344 kts | 337° |
| 2026-05-07 19:58 | 40.35851 | 29.80412 | 37956 ft | 295 kts | 336° |
| 2026-05-07 19:58 | 40.37853 | 29.79494 | 37162 ft | 320 kts | 336° |
| 2026-05-07 19:58 | 40.40039 | 29.78332 | 35970 ft | 357 kts | 334° |
| 2026-05-07 19:59 | 40.42399 | 29.76918 | 35167 ft | 386 kts | 333° |
| 2026-05-07 19:59 | 40.44843 | 29.75416 | 35332 ft | 384 kts | 333° |
| 2026-05-07 19:59 | 40.47228 | 29.73954 | 35805 ft | 378 kts | 334° |
| 2026-05-07 19:59 | 40.49663 | 29.72585 | 35842 ft | 381 kts | 335° |
| 2026-05-07 20:00 | 40.52121 | 29.71257 | 35982 ft | 382 kts | 335° |
| 2026-05-07 20:00 | 40.54584 | 29.69930 | 36087 ft | 384 kts | 335° |
| 2026-05-07 20:00 | 40.59561 | 29.67213 | 36122 ft | 391 kts | 335° |
| 2026-05-07 20:01 | 40.64623 | 29.64400 | 36115 ft | 399 kts | 333° |
| 2026-05-07 20:01 | 40.69283 | 29.60389 | 36119 ft | 404 kts | 320° |
| 2026-05-07 20:02 | 40.73696 | 29.55685 | 36113 ft | 411 kts | 320° |
| 2026-05-07 20:02 | 40.78172 | 29.50930 | 36113 ft | 415 kts | 320° |
| 2026-05-07 20:03 | 40.82693 | 29.46155 | 36132 ft | 418 kts | 320° |
| 2026-05-07 20:03 | 40.87236 | 29.41358 | 36118 ft | 416 kts | 320° |
| 2026-05-07 20:04 | 40.91704 | 29.36631 | 36119 ft | 408 kts | 320° |
| 2026-05-07 20:04 | 40.96132 | 29.31938 | 36128 ft | 407 kts | 320° |
| 2026-05-07 20:05 | 41.00549 | 29.27251 | 36133 ft | 407 kts | 320° |
| 2026-05-07 20:05 | 41.04962 | 29.22555 | 36116 ft | 407 kts | 320° |
| 2026-05-07 20:06 | 41.09380 | 29.17846 | 36132 ft | 408 kts | 320° |
| 2026-05-07 20:06 | 41.13517 | 29.12712 | 36136 ft | 408 kts | 308° |
| 2026-05-07 20:07 | 41.16703 | 29.06464 | 36106 ft | 410 kts | 303° |
| 2026-05-07 20:07 | 41.19834 | 29.00119 | 36121 ft | 411 kts | 303° |
| 2026-05-07 20:08 | 41.22972 | 28.93804 | 36121 ft | 413 kts | 303° |
| 2026-05-07 20:08 | 41.26147 | 28.87432 | 36124 ft | 414 kts | 303° |
| 2026-05-07 20:09 | 41.29328 | 28.81044 | 36136 ft | 415 kts | 303° |
| 2026-05-07 20:10 | 41.34097 | 28.71438 | 36118 ft | 414 kts | 303° |
| 2026-05-07 20:10 | 41.37263 | 28.65043 | 36126 ft | 414 kts | 303° |
| 2026-05-07 20:11 | 41.40426 | 28.58639 | 36123 ft | 414 kts | 303° |
| 2026-05-07 20:11 | 41.43586 | 28.52228 | 36121 ft | 414 kts | 303° |
| 2026-05-07 20:12 | 41.46742 | 28.45816 | 36108 ft | 414 kts | 302° |
| 2026-05-07 20:12 | 41.49892 | 28.39403 | 36117 ft | 413 kts | 302° |
| 2026-05-07 20:13 | 41.53037 | 28.32991 | 36102 ft | 413 kts | 302° |
| 2026-05-07 20:13 | 41.56179 | 28.26569 | 36122 ft | 413 kts | 302° |
| 2026-05-07 20:14 | 41.59320 | 28.20134 | 36101 ft | 414 kts | 302° |
| 2026-05-07 20:14 | 41.62463 | 28.13681 | 36126 ft | 414 kts | 302° |
| 2026-05-07 20:15 | 41.65610 | 28.07211 | 36126 ft | 416 kts | 302° |
| 2026-05-07 20:15 | 41.68739 | 28.00762 | 36114 ft | 417 kts | 302° |
| 2026-05-07 20:16 | 41.71889 | 27.94254 | 36109 ft | 417 kts | 302° |
| 2026-05-07 20:16 | 41.75014 | 27.87709 | 36105 ft | 417 kts | 302° |
| 2026-05-07 20:17 | 41.78168 | 27.81188 | 36116 ft | 417 kts | 302° |
| 2026-05-07 20:17 | 41.81327 | 27.74660 | 36099 ft | 417 kts | 302° |
| 2026-05-07 20:18 | 41.84474 | 27.68117 | 36093 ft | 418 kts | 302° |
| 2026-05-07 20:18 | 41.87616 | 27.61557 | 36099 ft | 418 kts | 301° |
| 2026-05-07 20:19 | 41.90756 | 27.54984 | 36108 ft | 418 kts | 301° |
| 2026-05-07 20:19 | 41.93899 | 27.48392 | 36106 ft | 421 kts | 302° |
| 2026-05-07 20:20 | 41.97052 | 27.41776 | 36080 ft | 420 kts | 301° |
| 2026-05-07 20:20 | 42.00191 | 27.35152 | 36094 ft | 420 kts | 301° |
| 2026-05-07 20:21 | 42.03328 | 27.28527 | 36090 ft | 420 kts | 301° |
| 2026-05-07 20:21 | 42.06455 | 27.21897 | 36090 ft | 419 kts | 300° |
| 2026-05-07 20:22 | 42.09095 | 27.14927 | 36087 ft | 418 kts | 294° |
| 2026-05-07 20:22 | 42.11551 | 27.07839 | 36080 ft | 418 kts | 294° |
| 2026-05-07 20:23 | 42.14053 | 27.00779 | 36084 ft | 418 kts | 295° |
| 2026-05-07 20:23 | 42.16609 | 26.93750 | 36078 ft | 418 kts | 297° |
| 2026-05-07 20:24 | 42.19418 | 26.86901 | 36079 ft | 418 kts | 298° |
| 2026-05-07 20:24 | 42.22291 | 26.80083 | 36080 ft | 418 kts | 298° |
| 2026-05-07 20:25 | 42.25145 | 26.73243 | 36067 ft | 418 kts | 298° |
| 2026-05-07 20:25 | 42.27977 | 26.66389 | 36073 ft | 418 kts | 297° |
| 2026-05-07 20:26 | 42.30778 | 26.59575 | 36074 ft | 418 kts | 297° |
| 2026-05-07 20:26 | 42.33592 | 26.52708 | 36069 ft | 418 kts | 297° |
| 2026-05-07 20:27 | 42.36400 | 26.45840 | 36077 ft | 417 kts | 297° |
| 2026-05-07 20:27 | 42.39205 | 26.38963 | 36075 ft | 418 kts | 297° |
| 2026-05-07 20:28 | 42.42006 | 26.32075 | 36080 ft | 418 kts | 297° |
| 2026-05-07 20:28 | 42.44804 | 26.25183 | 36077 ft | 418 kts | 297° |
| 2026-05-07 20:29 | 42.47597 | 26.18281 | 36056 ft | 418 kts | 297° |
| 2026-05-07 20:29 | 42.50392 | 26.11371 | 36059 ft | 418 kts | 297° |
| 2026-05-07 20:30 | 42.53185 | 26.04448 | 36056 ft | 419 kts | 296° |
| 2026-05-07 20:30 | 42.55977 | 25.97506 | 36060 ft | 420 kts | 296° |
| 2026-05-07 20:31 | 42.58766 | 25.90553 | 36063 ft | 420 kts | 296° |
| 2026-05-07 20:31 | 42.61561 | 25.83572 | 36056 ft | 421 kts | 296° |
| 2026-05-07 20:32 | 42.64352 | 25.76584 | 36066 ft | 421 kts | 296° |
| 2026-05-07 20:32 | 42.67134 | 25.69595 | 36055 ft | 420 kts | 296° |
| 2026-05-07 20:33 | 42.69882 | 25.62671 | 36053 ft | 418 kts | 296° |
| 2026-05-07 20:33 | 42.72638 | 25.55722 | 36056 ft | 417 kts | 296° |
| 2026-05-07 20:34 | 42.75385 | 25.48781 | 36066 ft | 416 kts | 296° |
| 2026-05-07 20:34 | 42.78118 | 25.41859 | 36067 ft | 415 kts | 296° |
| 2026-05-07 20:35 | 42.80833 | 25.34944 | 36051 ft | 413 kts | 296° |
| 2026-05-07 20:35 | 42.83543 | 25.28047 | 36059 ft | 412 kts | 296° |
| 2026-05-07 20:36 | 42.86238 | 25.21163 | 36067 ft | 411 kts | 296° |
| 2026-05-07 20:36 | 42.88926 | 25.14284 | 36073 ft | 411 kts | 296° |
| 2026-05-07 20:37 | 42.91613 | 25.07392 | 36071 ft | 411 kts | 295° |
| 2026-05-07 20:37 | 42.94297 | 25.00489 | 36068 ft | 412 kts | 295° |
| 2026-05-07 20:38 | 42.96980 | 24.93572 | 36074 ft | 412 kts | 296° |
| 2026-05-07 20:38 | 42.99662 | 24.86642 | 36065 ft | 414 kts | 295° |
| 2026-05-07 20:39 | 43.02349 | 24.79682 | 36068 ft | 415 kts | 295° |
| 2026-05-07 20:39 | 43.05034 | 24.72660 | 36073 ft | 418 kts | 295° |
| 2026-05-07 20:40 | 43.07736 | 24.65603 | 36079 ft | 419 kts | 295° |
| 2026-05-07 20:40 | 43.10453 | 24.58551 | 36053 ft | 419 kts | 295° |
| 2026-05-07 20:41 | 43.13158 | 24.51499 | 36060 ft | 418 kts | 295° |
| 2026-05-07 20:41 | 43.15846 | 24.44455 | 36061 ft | 417 kts | 295° |
| 2026-05-07 20:42 | 43.18519 | 24.37424 | 36061 ft | 416 kts | 295° |
| 2026-05-07 20:42 | 43.21182 | 24.30404 | 36057 ft | 414 kts | 295° |
| 2026-05-07 20:43 | 43.23834 | 24.23400 | 36054 ft | 413 kts | 295° |
| 2026-05-07 20:43 | 43.26026 | 24.17590 | 36056 ft | 412 kts | 295° |
| 2026-05-07 20:44 | 43.28653 | 24.10615 | 36057 ft | 411 kts | 295° |
| 2026-05-07 20:44 | 43.31269 | 24.03655 | 36057 ft | 410 kts | 295° |
| 2026-05-07 20:45 | 43.33872 | 23.96708 | 36050 ft | 408 kts | 295° |
| 2026-05-07 20:45 | 43.36465 | 23.89773 | 36056 ft | 408 kts | 295° |
| 2026-05-07 20:46 | 43.39051 | 23.82843 | 36051 ft | 408 kts | 295° |
| 2026-05-07 20:46 | 43.41630 | 23.75905 | 36051 ft | 408 kts | 295° |
| 2026-05-07 20:47 | 43.44194 | 23.69000 | 36054 ft | 408 kts | 295° |
| 2026-05-07 20:47 | 43.46777 | 23.62026 | 36071 ft | 410 kts | 295° |
| 2026-05-07 20:48 | 43.49363 | 23.55021 | 36062 ft | 411 kts | 295° |
| 2026-05-07 20:48 | 43.51954 | 23.47984 | 36060 ft | 413 kts | 295° |
| 2026-05-07 20:49 | 43.54554 | 23.40911 | 36066 ft | 414 kts | 294° |
| 2026-05-07 20:49 | 43.57158 | 23.33806 | 36055 ft | 416 kts | 294° |
| 2026-05-07 20:50 | 43.59762 | 23.26682 | 36060 ft | 416 kts | 294° |
| 2026-05-07 20:50 | 43.62367 | 23.19538 | 36059 ft | 417 kts | 294° |
| 2026-05-07 20:51 | 43.64970 | 23.12379 | 36057 ft | 417 kts | 294° |
| 2026-05-07 20:51 | 43.67570 | 23.05214 | 36060 ft | 417 kts | 294° |
| 2026-05-07 20:52 | 43.70165 | 22.98040 | 36059 ft | 417 kts | 294° |
| 2026-05-07 20:52 | 43.72750 | 22.90878 | 36065 ft | 416 kts | 294° |
| 2026-05-07 20:53 | 43.75328 | 22.83719 | 36065 ft | 415 kts | 294° |
| 2026-05-07 20:53 | 43.77892 | 22.76577 | 36061 ft | 414 kts | 294° |
| 2026-05-07 20:54 | 43.80444 | 22.69451 | 36061 ft | 412 kts | 294° |
| 2026-05-07 20:54 | 43.82967 | 22.62385 | 36063 ft | 412 kts | 294° |
| 2026-05-07 20:55 | 43.85498 | 22.55279 | 36073 ft | 411 kts | 294° |
| 2026-05-07 20:55 | 43.88020 | 22.48180 | 36059 ft | 411 kts | 294° |
| 2026-05-07 20:56 | 43.90536 | 22.41081 | 36062 ft | 410 kts | 294° |
| 2026-05-07 20:56 | 43.93602 | 22.34388 | 36086 ft | 413 kts | 302° |
| 2026-05-07 20:57 | 43.96974 | 22.27921 | 36070 ft | 414 kts | 302° |
| 2026-05-07 20:57 | 44.00336 | 22.21435 | 36069 ft | 414 kts | 302° |
| 2026-05-07 20:58 | 44.03687 | 22.14917 | 36064 ft | 415 kts | 302° |
| 2026-05-07 20:58 | 44.07033 | 22.08373 | 36063 ft | 415 kts | 302° |
| 2026-05-07 20:59 | 44.10378 | 22.01818 | 36069 ft | 416 kts | 302° |
| 2026-05-07 20:59 | 44.13726 | 21.95242 | 36068 ft | 417 kts | 302° |
| 2026-05-07 21:00 | 44.17079 | 21.88642 | 36069 ft | 417 kts | 302° |
| 2026-05-07 21:00 | 44.20432 | 21.82026 | 36072 ft | 418 kts | 302° |
| 2026-05-07 21:01 | 44.23785 | 21.75394 | 36069 ft | 419 kts | 302° |
| 2026-05-07 21:01 | 44.27136 | 21.68750 | 36067 ft | 419 kts | 301° |
| 2026-05-07 21:02 | 44.30465 | 21.62139 | 36074 ft | 419 kts | 301° |
| 2026-05-07 21:02 | 44.33811 | 21.55478 | 36056 ft | 419 kts | 301° |
| 2026-05-07 21:03 | 44.37150 | 21.48811 | 36057 ft | 419 kts | 301° |
| 2026-05-07 21:03 | 44.40484 | 21.42131 | 36067 ft | 419 kts | 301° |
| 2026-05-07 21:04 | 44.43829 | 21.35432 | 36057 ft | 420 kts | 301° |
| 2026-05-07 21:04 | 44.47168 | 21.28724 | 36046 ft | 420 kts | 301° |
| 2026-05-07 21:05 | 44.50501 | 21.22009 | 36048 ft | 420 kts | 301° |
| 2026-05-07 21:05 | 44.53829 | 21.15290 | 36045 ft | 419 kts | 301° |
| 2026-05-07 21:06 | 44.57144 | 21.08581 | 36048 ft | 418 kts | 301° |
| 2026-05-07 21:06 | 44.60452 | 21.01869 | 36048 ft | 418 kts | 300° |
| 2026-05-07 21:07 | 44.63758 | 20.95147 | 36043 ft | 418 kts | 300° |
| 2026-05-07 21:07 | 44.67058 | 20.88419 | 36046 ft | 418 kts | 300° |
| 2026-05-07 21:08 | 44.70358 | 20.81678 | 36053 ft | 419 kts | 300° |
| 2026-05-07 21:08 | 44.73966 | 20.75210 | 36046 ft | 425 kts | 310° |
| 2026-05-07 21:09 | 44.78196 | 20.69387 | 36048 ft | 426 kts | 311° |
| 2026-05-07 21:09 | 44.82433 | 20.63565 | 36050 ft | 426 kts | 310° |
| 2026-05-07 21:10 | 44.86625 | 20.57742 | 36063 ft | 426 kts | 310° |
| 2026-05-07 21:10 | 44.90824 | 20.51867 | 36049 ft | 425 kts | 310° |
| 2026-05-07 21:11 | 44.95015 | 20.45984 | 36050 ft | 425 kts | 310° |
| 2026-05-07 21:11 | 45.01286 | 20.37161 | 36050 ft | 424 kts | 310° |
| 2026-05-07 21:12 | 45.05460 | 20.31270 | 36068 ft | 424 kts | 310° |
| 2026-05-07 21:12 | 45.09633 | 20.25370 | 36051 ft | 424 kts | 310° |
| 2026-05-07 21:13 | 45.13798 | 20.19467 | 36050 ft | 424 kts | 310° |
| 2026-05-07 21:13 | 45.17965 | 20.13546 | 36047 ft | 424 kts | 310° |
| 2026-05-07 21:14 | 45.22131 | 20.07618 | 36052 ft | 424 kts | 310° |
| 2026-05-07 21:14 | 45.26295 | 20.01679 | 36058 ft | 425 kts | 309° |
| 2026-05-07 21:15 | 45.30463 | 19.95717 | 36060 ft | 426 kts | 309° |
| 2026-05-07 21:15 | 45.34520 | 19.89599 | 36053 ft | 424 kts | 306° |
| 2026-05-07 21:16 | 45.38391 | 19.83271 | 36053 ft | 424 kts | 306° |
| 2026-05-07 21:16 | 45.42254 | 19.76919 | 36060 ft | 425 kts | 306° |
| 2026-05-07 21:17 | 45.46142 | 19.70568 | 36061 ft | 426 kts | 306° |
| 2026-05-07 21:17 | 45.50050 | 19.64196 | 36056 ft | 427 kts | 306° |
| 2026-05-07 21:18 | 45.53960 | 19.57810 | 36049 ft | 428 kts | 306° |
| 2026-05-07 21:18 | 45.57872 | 19.51410 | 36052 ft | 428 kts | 306° |
| 2026-05-07 21:19 | 45.61784 | 19.44993 | 36051 ft | 428 kts | 306° |
| 2026-05-07 21:19 | 45.65692 | 19.38566 | 36051 ft | 428 kts | 306° |
| 2026-05-07 21:20 | 45.69596 | 19.32132 | 36052 ft | 428 kts | 306° |
| 2026-05-07 21:20 | 45.73497 | 19.25687 | 36047 ft | 428 kts | 306° |
| 2026-05-07 21:21 | 45.77390 | 19.19241 | 36065 ft | 428 kts | 306° |
| 2026-05-07 21:21 | 45.81283 | 19.12779 | 36054 ft | 428 kts | 306° |
| 2026-05-07 21:22 | 45.85144 | 19.06355 | 36050 ft | 428 kts | 306° |
| 2026-05-07 21:22 | 45.89025 | 18.99882 | 36052 ft | 428 kts | 305° |
| 2026-05-07 21:23 | 45.92899 | 18.93409 | 36050 ft | 427 kts | 305° |
| 2026-05-07 21:23 | 45.96662 | 18.86825 | 36062 ft | 426 kts | 303° |
| 2026-05-07 21:24 | 46.00331 | 18.80145 | 36056 ft | 425 kts | 303° |
| 2026-05-07 21:24 | 46.03999 | 18.73465 | 36057 ft | 425 kts | 303° |
| 2026-05-07 21:25 | 46.07671 | 18.66800 | 36048 ft | 425 kts | 303° |
| 2026-05-07 21:25 | 46.11344 | 18.60131 | 36053 ft | 425 kts | 303° |
| 2026-05-07 21:26 | 46.15022 | 18.53439 | 36052 ft | 427 kts | 303° |
| 2026-05-07 21:26 | 46.18704 | 18.46723 | 36050 ft | 427 kts | 303° |
| 2026-05-07 21:27 | 46.22386 | 18.39994 | 36052 ft | 427 kts | 303° |
| 2026-05-07 21:27 | 46.26064 | 18.33255 | 36051 ft | 427 kts | 303° |
| 2026-05-07 21:28 | 46.29734 | 18.26515 | 36077 ft | 427 kts | 303° |
| 2026-05-07 21:28 | 46.33377 | 18.19805 | 36059 ft | 427 kts | 303° |
| 2026-05-07 21:29 | 46.37043 | 18.13039 | 36053 ft | 427 kts | 302° |
| 2026-05-07 21:29 | 46.40704 | 18.06267 | 36050 ft | 427 kts | 302° |
| 2026-05-07 21:30 | 46.44358 | 17.99495 | 36049 ft | 426 kts | 302° |
| 2026-05-07 21:30 | 46.48002 | 17.92711 | 36053 ft | 427 kts | 302° |
| 2026-05-07 21:31 | 46.51645 | 17.85917 | 36050 ft | 426 kts | 302° |
| 2026-05-07 21:31 | 46.55283 | 17.79117 | 36047 ft | 426 kts | 302° |
| 2026-05-07 21:32 | 46.58916 | 17.72316 | 36048 ft | 426 kts | 302° |
| 2026-05-07 21:32 | 46.62564 | 17.65534 | 36080 ft | 426 kts | 303° |
| 2026-05-07 21:33 | 46.66354 | 17.58882 | 36060 ft | 427 kts | 304° |
| 2026-05-07 21:33 | 46.69523 | 17.53369 | 36055 ft | 427 kts | 304° |
| 2026-05-07 21:34 | 46.73312 | 17.46722 | 36066 ft | 426 kts | 303° |
| 2026-05-07 21:34 | 46.77108 | 17.40010 | 36212 ft | 431 kts | 303° |
| 2026-05-07 21:35 | 46.79014 | 17.36632 | 36424 ft | 431 kts | 303° |
| 2026-05-07 21:35 | 46.80913 | 17.33265 | 36747 ft | 428 kts | 303° |
| 2026-05-07 21:35 | 46.82799 | 17.29917 | 37041 ft | 426 kts | 303° |
| 2026-05-07 21:35 | 46.84679 | 17.26570 | 37240 ft | 426 kts | 303° |
| 2026-05-07 21:36 | 46.86555 | 17.23225 | 37419 ft | 426 kts | 304° |
| 2026-05-07 21:36 | 46.88434 | 17.19873 | 37615 ft | 426 kts | 304° |
| 2026-05-07 21:36 | 46.90310 | 17.16523 | 37792 ft | 426 kts | 304° |
| 2026-05-07 21:36 | 46.92183 | 17.13172 | 37978 ft | 425 kts | 304° |
| 2026-05-07 21:37 | 46.95940 | 17.06438 | 38053 ft | 429 kts | 304° |
| 2026-05-07 21:37 | 46.99718 | 16.99652 | 38065 ft | 430 kts | 304° |
| 2026-05-07 21:38 | 47.03488 | 16.92867 | 38055 ft | 429 kts | 304° |
| 2026-05-07 21:38 | 47.07249 | 16.86081 | 38063 ft | 429 kts | 304° |
| 2026-05-07 21:39 | 47.11001 | 16.79294 | 38055 ft | 427 kts | 303° |
| 2026-05-07 21:39 | 47.14739 | 16.72511 | 38051 ft | 427 kts | 303° |
| 2026-05-07 21:40 | 47.18468 | 16.65731 | 38059 ft | 426 kts | 304° |
| 2026-05-07 21:40 | 47.22190 | 16.58946 | 38076 ft | 426 kts | 304° |
| 2026-05-07 21:41 | 47.25910 | 16.52149 | 38067 ft | 427 kts | 304° |
| 2026-05-07 21:41 | 47.29586 | 16.45289 | 38062 ft | 426 kts | 301° |
| 2026-05-07 21:42 | 47.33002 | 16.38181 | 38076 ft | 425 kts | 300° |
| 2026-05-07 21:42 | 47.36368 | 16.30997 | 38077 ft | 426 kts | 300° |
| 2026-05-07 21:43 | 47.39760 | 16.23799 | 38077 ft | 428 kts | 300° |
| 2026-05-07 21:43 | 47.43172 | 16.16590 | 38079 ft | 429 kts | 300° |
| 2026-05-07 21:44 | 47.46568 | 16.09408 | 38083 ft | 429 kts | 300° |
| 2026-05-07 21:44 | 47.49986 | 16.02160 | 38089 ft | 430 kts | 300° |
| 2026-05-07 21:45 | 47.53405 | 15.94893 | 38080 ft | 431 kts | 300° |
| 2026-05-07 21:45 | 47.56828 | 15.87598 | 38092 ft | 432 kts | 300° |
| 2026-05-07 21:46 | 47.60255 | 15.80273 | 38089 ft | 433 kts | 300° |
| 2026-05-07 21:46 | 47.63679 | 15.72937 | 38091 ft | 433 kts | 300° |
| 2026-05-07 21:47 | 47.67097 | 15.65588 | 38096 ft | 433 kts | 300° |
| 2026-05-07 21:47 | 47.70510 | 15.58235 | 38091 ft | 432 kts | 300° |
| 2026-05-07 21:48 | 47.73914 | 15.50885 | 38095 ft | 432 kts | 300° |
| 2026-05-07 21:48 | 47.77308 | 15.43531 | 38098 ft | 431 kts | 300° |
| 2026-05-07 21:49 | 47.80696 | 15.36172 | 38091 ft | 431 kts | 300° |
| 2026-05-07 21:49 | 47.84109 | 15.28839 | 38098 ft | 431 kts | 301° |
| 2026-05-07 21:50 | 47.87566 | 15.21549 | 38093 ft | 431 kts | 301° |
| 2026-05-07 21:50 | 47.91017 | 15.14253 | 38086 ft | 430 kts | 301° |
| 2026-05-07 21:51 | 47.94449 | 15.06948 | 38084 ft | 430 kts | 301° |
| 2026-05-07 21:51 | 47.97872 | 14.99644 | 38104 ft | 429 kts | 301° |
| 2026-05-07 21:52 | 48.01284 | 14.92338 | 38102 ft | 429 kts | 301° |
| 2026-05-07 21:52 | 48.04702 | 14.85004 | 38094 ft | 431 kts | 301° |
| 2026-05-07 21:53 | 48.07955 | 14.77504 | 38090 ft | 430 kts | 297° |
| 2026-05-07 21:53 | 48.11038 | 14.69840 | 38087 ft | 430 kts | 297° |
| 2026-05-07 21:54 | 48.14118 | 14.62157 | 38103 ft | 431 kts | 297° |
| 2026-05-07 21:54 | 48.17222 | 14.54460 | 38097 ft | 432 kts | 298° |
| 2026-05-07 21:55 | 48.20315 | 14.46804 | 38101 ft | 433 kts | 298° |
| 2026-05-07 21:55 | 48.23430 | 14.39081 | 38100 ft | 433 kts | 298° |
| 2026-05-07 21:56 | 48.26540 | 14.31348 | 38103 ft | 433 kts | 298° |
| 2026-05-07 21:56 | 48.29646 | 14.23598 | 38110 ft | 433 kts | 298° |
| 2026-05-07 21:57 | 48.32750 | 14.15831 | 38111 ft | 434 kts | 298° |
| 2026-05-07 21:57 | 48.35851 | 14.08047 | 38101 ft | 434 kts | 298° |
| 2026-05-07 21:58 | 48.38947 | 14.00250 | 38090 ft | 434 kts | 298° |
| 2026-05-07 21:58 | 48.42038 | 13.92449 | 38096 ft | 434 kts | 298° |
| 2026-05-07 21:59 | 48.45120 | 13.84651 | 38093 ft | 433 kts | 298° |
| 2026-05-07 21:59 | 48.48192 | 13.76851 | 38110 ft | 433 kts | 298° |
| 2026-05-07 22:00 | 48.51260 | 13.69034 | 38091 ft | 433 kts | 298° |
| 2026-05-07 22:00 | 48.54313 | 13.61235 | 38102 ft | 431 kts | 298° |
| 2026-05-07 22:01 | 48.57359 | 13.53437 | 38100 ft | 431 kts | 298° |
| 2026-05-07 22:01 | 48.60236 | 13.45518 | 38093 ft | 429 kts | 294° |
| 2026-05-07 22:02 | 48.62867 | 13.37430 | 38101 ft | 429 kts | 294° |
| 2026-05-07 22:02 | 48.65480 | 13.29308 | 38098 ft | 430 kts | 294° |
| 2026-05-07 22:03 | 48.68110 | 13.21186 | 38100 ft | 430 kts | 294° |
| 2026-05-07 22:03 | 48.70735 | 13.13109 | 38114 ft | 431 kts | 294° |
| 2026-05-07 22:04 | 48.73380 | 13.04954 | 38102 ft | 432 kts | 294° |
| 2026-05-07 22:04 | 48.76023 | 12.96768 | 38100 ft | 433 kts | 294° |
| 2026-05-07 22:05 | 48.78665 | 12.88568 | 38103 ft | 433 kts | 294° |
| 2026-05-07 22:05 | 48.81306 | 12.80346 | 38104 ft | 434 kts | 294° |
| 2026-05-07 22:06 | 48.83945 | 12.72101 | 38096 ft | 435 kts | 294° |
| 2026-05-07 22:06 | 48.86581 | 12.63845 | 38103 ft | 434 kts | 294° |
| 2026-05-07 22:07 | 48.89210 | 12.55572 | 38096 ft | 435 kts | 294° |
| 2026-05-07 22:07 | 48.91834 | 12.47294 | 38095 ft | 435 kts | 294° |
| 2026-05-07 22:08 | 48.94453 | 12.38999 | 38102 ft | 435 kts | 294° |
| 2026-05-07 22:08 | 48.97067 | 12.30696 | 38099 ft | 435 kts | 294° |
| 2026-05-07 22:09 | 48.99672 | 12.22391 | 38097 ft | 435 kts | 294° |
| 2026-05-07 22:09 | 49.02270 | 12.14084 | 38095 ft | 434 kts | 293° |
| 2026-05-07 22:10 | 49.04859 | 12.05779 | 38091 ft | 433 kts | 293° |
| 2026-05-07 22:10 | 49.07437 | 11.97480 | 38100 ft | 433 kts | 293° |
| 2026-05-07 22:11 | 49.10005 | 11.89181 | 38092 ft | 432 kts | 293° |
| 2026-05-07 22:11 | 49.12562 | 11.80890 | 38096 ft | 432 kts | 293° |
| 2026-05-07 22:12 | 49.15114 | 11.72595 | 38105 ft | 431 kts | 293° |
| 2026-05-07 22:12 | 49.17659 | 11.64291 | 38094 ft | 432 kts | 293° |
| 2026-05-07 22:13 | 49.20181 | 11.56037 | 38100 ft | 431 kts | 293° |
| 2026-05-07 22:13 | 49.22711 | 11.47726 | 38110 ft | 431 kts | 293° |
| 2026-05-07 22:14 | 49.25235 | 11.39402 | 38114 ft | 431 kts | 293° |
| 2026-05-07 22:14 | 49.27756 | 11.31067 | 38118 ft | 431 kts | 293° |
| 2026-05-07 22:15 | 49.30272 | 11.22718 | 38117 ft | 432 kts | 293° |
| 2026-05-07 22:15 | 49.32782 | 11.14358 | 38115 ft | 432 kts | 293° |
| 2026-05-07 22:16 | 49.35287 | 11.05985 | 38109 ft | 432 kts | 293° |
| 2026-05-07 22:16 | 49.37790 | 10.97597 | 38104 ft | 432 kts | 293° |
| 2026-05-07 22:17 | 49.40339 | 10.89242 | 38109 ft | 432 kts | 294° |
| 2026-05-07 22:17 | 49.43039 | 10.80997 | 38114 ft | 432 kts | 295° |
| 2026-05-07 22:18 | 49.47095 | 10.68610 | 38110 ft | 433 kts | 295° |
| 2026-05-07 22:19 | 49.49774 | 10.60307 | 38104 ft | 433 kts | 295° |
| 2026-05-07 22:19 | 49.52445 | 10.51995 | 38106 ft | 433 kts | 295° |
| 2026-05-07 22:20 | 49.54660 | 10.45084 | 38099 ft | 433 kts | 295° |
| 2026-05-07 22:20 | 49.57315 | 10.36754 | 38117 ft | 433 kts | 295° |
| 2026-05-07 22:21 | 49.59965 | 10.28424 | 38093 ft | 433 kts | 294° |
| 2026-05-07 22:21 | 49.62606 | 10.20088 | 38089 ft | 433 kts | 294° |
| 2026-05-07 22:22 | 49.65239 | 10.11750 | 38084 ft | 432 kts | 294° |
| 2026-05-07 22:22 | 49.67865 | 10.03414 | 38088 ft | 432 kts | 294° |
| 2026-05-07 22:23 | 49.70482 | 9.95077 | 38088 ft | 431 kts | 294° |
| 2026-05-07 22:23 | 49.73092 | 9.86731 | 38079 ft | 431 kts | 294° |
| 2026-05-07 22:24 | 49.75692 | 9.78384 | 38088 ft | 431 kts | 294° |
| 2026-05-07 22:24 | 49.78290 | 9.70032 | 38087 ft | 430 kts | 294° |
| 2026-05-07 22:25 | 49.80875 | 9.61679 | 38090 ft | 430 kts | 294° |
| 2026-05-07 22:25 | 49.83454 | 9.53313 | 38081 ft | 430 kts | 294° |
| 2026-05-07 22:26 | 49.86027 | 9.44946 | 38087 ft | 430 kts | 294° |
| 2026-05-07 22:26 | 49.88597 | 9.36564 | 38101 ft | 430 kts | 294° |
| 2026-05-07 22:27 | 49.91162 | 9.28163 | 38086 ft | 431 kts | 294° |
| 2026-05-07 22:27 | 49.93719 | 9.19752 | 38102 ft | 431 kts | 294° |
| 2026-05-07 22:28 | 49.96281 | 9.11319 | 38098 ft | 432 kts | 294° |
| 2026-05-07 22:28 | 49.98833 | 9.02875 | 38090 ft | 432 kts | 293° |
| 2026-05-07 22:29 | 50.01378 | 8.94416 | 38097 ft | 432 kts | 293° |
| 2026-05-07 22:29 | 50.03921 | 8.85951 | 38100 ft | 432 kts | 293° |
| 2026-05-07 22:30 | 50.06420 | 8.77444 | 38096 ft | 432 kts | 291° |
| 2026-05-07 22:30 | 50.08668 | 8.68779 | 38111 ft | 432 kts | 290° |
| 2026-05-07 22:31 | 50.10848 | 8.60069 | 38102 ft | 431 kts | 290° |
| 2026-05-07 22:31 | 50.13036 | 8.51366 | 38106 ft | 431 kts | 290° |
| 2026-05-07 22:32 | 50.15234 | 8.42671 | 38107 ft | 431 kts | 290° |
| 2026-05-07 22:32 | 50.17418 | 8.34029 | 38101 ft | 431 kts | 290° |
| 2026-05-07 22:33 | 50.19614 | 8.25315 | 38110 ft | 431 kts | 290° |
| 2026-05-07 22:33 | 50.21805 | 8.16585 | 38105 ft | 432 kts | 290° |
| 2026-05-07 22:34 | 50.23988 | 8.07842 | 38107 ft | 432 kts | 290° |
| 2026-05-07 22:34 | 50.26167 | 7.99087 | 38106 ft | 432 kts | 290° |
| 2026-05-07 22:35 | 50.28338 | 7.90327 | 38099 ft | 432 kts | 289° |
| 2026-05-07 22:35 | 50.30499 | 7.81572 | 38109 ft | 431 kts | 289° |
| 2026-05-07 22:36 | 50.32655 | 7.72812 | 38097 ft | 431 kts | 289° |
| 2026-05-07 22:36 | 50.34802 | 7.64050 | 38101 ft | 431 kts | 289° |
| 2026-05-07 22:37 | 50.36940 | 7.55287 | 38093 ft | 431 kts | 289° |
| 2026-05-07 22:37 | 50.39073 | 7.46518 | 38096 ft | 431 kts | 289° |
| 2026-05-07 22:38 | 50.41200 | 7.37737 | 38097 ft | 431 kts | 289° |
| 2026-05-07 22:38 | 50.43316 | 7.28937 | 38095 ft | 431 kts | 289° |
| 2026-05-07 22:39 | 50.45432 | 7.20130 | 38086 ft | 431 kts | 289° |
| 2026-05-07 22:39 | 50.47540 | 7.11325 | 38085 ft | 431 kts | 289° |
| 2026-05-07 22:40 | 50.49640 | 7.02511 | 38086 ft | 431 kts | 289° |
| 2026-05-07 22:40 | 50.51733 | 6.93689 | 38093 ft | 431 kts | 289° |
| 2026-05-07 22:41 | 50.53820 | 6.84857 | 38082 ft | 431 kts | 289° |
| 2026-05-07 22:41 | 50.55901 | 6.76015 | 38087 ft | 431 kts | 288° |
| 2026-05-07 22:42 | 50.57975 | 6.67168 | 38083 ft | 431 kts | 288° |
| 2026-05-07 22:42 | 50.60039 | 6.58317 | 38088 ft | 431 kts | 288° |
| 2026-05-07 22:43 | 50.62097 | 6.49464 | 38084 ft | 430 kts | 288° |
| 2026-05-07 22:43 | 50.64147 | 6.40609 | 38089 ft | 430 kts | 288° |
| 2026-05-07 22:44 | 50.66189 | 6.31750 | 38091 ft | 430 kts | 288° |
| 2026-05-07 22:44 | 50.68214 | 6.22927 | 38101 ft | 431 kts | 288° |
| 2026-05-07 22:45 | 50.70248 | 6.14028 | 38105 ft | 432 kts | 288° |
| 2026-05-07 22:45 | 50.72279 | 6.05109 | 38109 ft | 432 kts | 288° |
| 2026-05-07 22:46 | 50.74306 | 5.96158 | 38102 ft | 433 kts | 288° |
| 2026-05-07 22:46 | 50.76330 | 5.87187 | 38100 ft | 434 kts | 288° |
| 2026-05-07 22:47 | 50.78346 | 5.78217 | 38099 ft | 433 kts | 288° |
| 2026-05-07 22:47 | 50.80357 | 5.69236 | 38104 ft | 433 kts | 288° |
| 2026-05-07 22:48 | 50.82360 | 5.60249 | 38110 ft | 433 kts | 288° |
| 2026-05-07 22:48 | 50.84355 | 5.51256 | 38104 ft | 433 kts | 288° |
| 2026-05-07 22:49 | 50.86343 | 5.42255 | 38100 ft | 433 kts | 288° |
| 2026-05-07 22:49 | 50.88323 | 5.33250 | 38101 ft | 433 kts | 287° |
| 2026-05-07 22:50 | 50.90293 | 5.24250 | 38099 ft | 433 kts | 287° |
| 2026-05-07 22:50 | 50.92260 | 5.15237 | 38103 ft | 433 kts | 287° |
| 2026-05-07 22:51 | 50.94216 | 5.06223 | 38105 ft | 432 kts | 287° |
| 2026-05-07 22:51 | 50.96166 | 4.97199 | 38103 ft | 432 kts | 287° |
| 2026-05-07 22:52 | 50.98109 | 4.88174 | 38102 ft | 433 kts | 287° |
| 2026-05-07 22:52 | 51.00046 | 4.79134 | 38104 ft | 433 kts | 287° |
| 2026-05-07 22:53 | 51.01977 | 4.70085 | 38115 ft | 433 kts | 287° |
| 2026-05-07 22:53 | 51.03899 | 4.61024 | 38103 ft | 433 kts | 287° |
| 2026-05-07 22:54 | 51.05817 | 4.51949 | 38104 ft | 433 kts | 287° |
| 2026-05-07 22:54 | 51.07729 | 4.42868 | 38104 ft | 433 kts | 287° |
| 2026-05-07 22:55 | 51.09632 | 4.33778 | 38102 ft | 433 kts | 287° |
| 2026-05-07 22:55 | 51.11530 | 4.24669 | 38098 ft | 434 kts | 287° |
| 2026-05-07 22:56 | 51.13421 | 4.15561 | 38094 ft | 433 kts | 287° |
| 2026-05-07 22:56 | 51.15303 | 4.06455 | 38096 ft | 433 kts | 286° |
| 2026-05-07 22:57 | 51.17179 | 3.97334 | 38084 ft | 433 kts | 286° |
| 2026-05-07 22:57 | 51.19047 | 3.88215 | 38075 ft | 433 kts | 286° |
| 2026-05-07 22:57 | 51.19987 | 3.83608 | 37590 ft | 439 kts | 286° |
| 2026-05-07 22:58 | 51.20927 | 3.78993 | 37096 ft | 437 kts | 286° |
| 2026-05-07 22:58 | 51.21862 | 3.74398 | 36578 ft | 434 kts | 286° |
| 2026-05-07 22:58 | 51.22791 | 3.69814 | 36039 ft | 433 kts | 286° |
| 2026-05-07 22:58 | 51.23693 | 3.65268 | 35679 ft | 427 kts | 284° |
| 2026-05-07 22:59 | 51.24388 | 3.60690 | 35271 ft | 422 kts | 280° |
| 2026-05-07 22:59 | 51.24958 | 3.56121 | 34880 ft | 418 kts | 279° |
| 2026-05-07 22:59 | 51.25503 | 3.51586 | 34560 ft | 412 kts | 279° |
| 2026-05-07 22:59 | 51.26057 | 3.47130 | 34052 ft | 411 kts | 279° |
| 2026-05-07 23:00 | 51.26629 | 3.42688 | 33701 ft | 405 kts | 279° |
| 2026-05-07 23:00 | 51.27203 | 3.38296 | 33244 ft | 402 kts | 279° |
| 2026-05-07 23:00 | 51.27771 | 3.33943 | 32838 ft | 398 kts | 279° |
| 2026-05-07 23:00 | 51.28323 | 3.29687 | 32458 ft | 395 kts | 279° |
| 2026-05-07 23:01 | 51.28875 | 3.25416 | 32080 ft | 391 kts | 279° |
| 2026-05-07 23:01 | 51.29430 | 3.21123 | 31702 ft | 388 kts | 279° |
| 2026-05-07 23:01 | 51.29965 | 3.16981 | 31324 ft | 384 kts | 279° |
| 2026-05-07 23:01 | 51.30501 | 3.12810 | 30952 ft | 381 kts | 279° |
| 2026-05-07 23:02 | 51.31030 | 3.08677 | 30584 ft | 378 kts | 279° |
| 2026-05-07 23:02 | 51.31555 | 3.04571 | 30224 ft | 376 kts | 279° |
| 2026-05-07 23:02 | 51.32075 | 3.00496 | 29806 ft | 373 kts | 279° |
| 2026-05-07 23:02 | 51.32589 | 2.96452 | 29435 ft | 369 kts | 279° |
| 2026-05-07 23:03 | 51.33098 | 2.92450 | 29055 ft | 366 kts | 279° |
| 2026-05-07 23:03 | 51.33600 | 2.88484 | 28679 ft | 362 kts | 279° |
| 2026-05-07 23:03 | 51.34097 | 2.84549 | 28318 ft | 361 kts | 279° |
| 2026-05-07 23:03 | 51.34594 | 2.80595 | 27936 ft | 365 kts | 279° |
| 2026-05-07 23:04 | 51.35093 | 2.76600 | 27548 ft | 366 kts | 279° |
| 2026-05-07 23:04 | 51.35588 | 2.72623 | 27176 ft | 363 kts | 279° |
| 2026-05-07 23:04 | 51.36072 | 2.68679 | 26805 ft | 360 kts | 279° |
| 2026-05-07 23:04 | 51.36388 | 2.66084 | 26558 ft | 358 kts | 279° |
| 2026-05-07 23:05 | 51.37021 | 2.60882 | 26075 ft | 354 kts | 279° |
| 2026-05-07 23:05 | 51.37332 | 2.58325 | 25844 ft | 352 kts | 279° |
| 2026-05-07 23:05 | 51.37799 | 2.54489 | 25480 ft | 350 kts | 279° |
| 2026-05-07 23:05 | 51.38261 | 2.50679 | 25126 ft | 348 kts | 279° |
| 2026-05-07 23:06 | 51.38721 | 2.46877 | 24777 ft | 347 kts | 279° |
| 2026-05-07 23:06 | 51.39179 | 2.43087 | 24423 ft | 346 kts | 279° |
| 2026-05-07 23:06 | 51.39548 | 2.39266 | 23882 ft | 350 kts | 274° |
| 2026-05-07 23:06 | 51.39736 | 2.35374 | 23434 ft | 350 kts | 272° |
| 2026-05-07 23:07 | 51.39871 | 2.31488 | 23017 ft | 348 kts | 271° |
| 2026-05-07 23:07 | 51.39997 | 2.27634 | 22632 ft | 345 kts | 271° |
| 2026-05-07 23:07 | 51.40128 | 2.23819 | 22277 ft | 341 kts | 271° |
| 2026-05-07 23:07 | 51.40266 | 2.20040 | 21924 ft | 338 kts | 272° |
| 2026-05-07 23:08 | 51.40412 | 2.16291 | 21564 ft | 336 kts | 272° |
| 2026-05-07 23:08 | 51.40560 | 2.12574 | 21213 ft | 333 kts | 272° |
| 2026-05-07 23:08 | 51.40708 | 2.08887 | 20866 ft | 331 kts | 272° |
| 2026-05-07 23:08 | 51.40857 | 2.05229 | 20518 ft | 328 kts | 272° |
| 2026-05-07 23:09 | 51.41004 | 2.01595 | 20182 ft | 326 kts | 272° |
| 2026-05-07 23:09 | 51.41149 | 1.97986 | 19855 ft | 324 kts | 272° |
| 2026-05-07 23:09 | 51.41293 | 1.94393 | 19520 ft | 322 kts | 272° |
| 2026-05-07 23:09 | 51.41434 | 1.90821 | 19192 ft | 320 kts | 272° |
| 2026-05-07 23:10 | 51.41574 | 1.87267 | 18857 ft | 319 kts | 272° |
| 2026-05-07 23:10 | 51.41712 | 1.83725 | 18525 ft | 318 kts | 271° |
| 2026-05-07 23:10 | 51.41849 | 1.80197 | 18163 ft | 317 kts | 271° |
| 2026-05-07 23:10 | 51.41984 | 1.76682 | 17796 ft | 315 kts | 271° |
| 2026-05-07 23:11 | 51.42118 | 1.73188 | 17454 ft | 313 kts | 271° |
| 2026-05-07 23:11 | 51.42250 | 1.69718 | 17113 ft | 311 kts | 271° |
| 2026-05-07 23:11 | 51.42380 | 1.66266 | 16789 ft | 311 kts | 271° |
| 2026-05-07 23:11 | 51.42510 | 1.62802 | 16465 ft | 312 kts | 271° |
| 2026-05-07 23:12 | 51.42639 | 1.59326 | 16136 ft | 312 kts | 271° |
| 2026-05-07 23:12 | 51.42768 | 1.55862 | 15799 ft | 310 kts | 271° |
| 2026-05-07 23:12 | 51.42896 | 1.52418 | 15469 ft | 309 kts | 271° |
| 2026-05-07 23:12 | 51.43021 | 1.48994 | 15148 ft | 307 kts | 271° |
| 2026-05-07 23:13 | 51.43142 | 1.45590 | 14830 ft | 305 kts | 271° |
| 2026-05-07 23:13 | 51.43260 | 1.42204 | 14514 ft | 304 kts | 270° |
| 2026-05-07 23:13 | 51.43046 | 1.38878 | 14176 ft | 300 kts | 248° |
| 2026-05-07 23:13 | 51.42044 | 1.36071 | 14019 ft | 293 kts | 229° |
| 2026-05-07 23:14 | 51.40538 | 1.33909 | 13849 ft | 291 kts | 217° |
| 2026-05-07 23:14 | 51.38897 | 1.31961 | 13685 ft | 296 kts | 216° |
| 2026-05-07 23:14 | 51.37216 | 1.30013 | 13522 ft | 300 kts | 216° |
| 2026-05-07 23:14 | 51.35525 | 1.28056 | 13347 ft | 299 kts | 216° |
| 2026-05-07 23:15 | 51.33850 | 1.26109 | 13180 ft | 297 kts | 216° |
| 2026-05-07 23:15 | 51.32184 | 1.24163 | 13021 ft | 296 kts | 216° |
| 2026-05-07 23:15 | 51.30531 | 1.22226 | 12868 ft | 294 kts | 216° |
| 2026-05-07 23:15 | 51.28888 | 1.20295 | 12708 ft | 293 kts | 216° |
| 2026-05-07 23:16 | 51.27251 | 1.18371 | 12559 ft | 292 kts | 216° |
| 2026-05-07 23:16 | 51.25616 | 1.16449 | 12412 ft | 292 kts | 216° |
| 2026-05-07 23:16 | 51.23982 | 1.14528 | 12255 ft | 292 kts | 216° |
| 2026-05-07 23:16 | 51.22347 | 1.12608 | 12114 ft | 292 kts | 216° |
| 2026-05-07 23:17 | 51.20711 | 1.10687 | 11956 ft | 293 kts | 217° |
| 2026-05-07 23:17 | 51.19068 | 1.08760 | 11809 ft | 293 kts | 217° |
| 2026-05-07 23:17 | 51.17426 | 1.06833 | 11655 ft | 294 kts | 217° |
| 2026-05-07 23:17 | 51.15779 | 1.04903 | 11506 ft | 294 kts | 217° |
| 2026-05-07 23:18 | 51.14134 | 1.02974 | 11352 ft | 294 kts | 217° |
| 2026-05-07 23:18 | 51.12488 | 1.01046 | 11192 ft | 294 kts | 217° |
| 2026-05-07 23:18 | 51.10843 | 0.99118 | 11041 ft | 294 kts | 217° |
| 2026-05-07 23:18 | 51.09197 | 0.97195 | 10888 ft | 293 kts | 217° |
| 2026-05-07 23:19 | 51.07554 | 0.95282 | 10739 ft | 292 kts | 217° |
| 2026-05-07 23:19 | 51.05965 | 0.93278 | 10544 ft | 290 kts | 229° |
| 2026-05-07 23:19 | 51.04898 | 0.90597 | 10404 ft | 286 kts | 245° |
| 2026-05-07 23:19 | 51.04055 | 0.87758 | 10235 ft | 281 kts | 246° |
| 2026-05-07 23:20 | 51.03246 | 0.84979 | 10097 ft | 273 kts | 246° |
| 2026-05-07 23:20 | 51.02461 | 0.82292 | 10036 ft | 264 kts | 246° |
| 2026-05-07 23:20 | 51.01683 | 0.79646 | 9800 ft | 266 kts | 246° |
| 2026-05-07 23:20 | 51.00903 | 0.77011 | 9646 ft | 263 kts | 245° |
| 2026-05-07 23:21 | 51.00123 | 0.74397 | 9486 ft | 262 kts | 245° |
| 2026-05-07 23:21 | 50.99339 | 0.71781 | 9333 ft | 262 kts | 245° |
| 2026-05-07 23:21 | 50.98555 | 0.69169 | 9197 ft | 262 kts | 245° |
| 2026-05-07 23:21 | 50.97768 | 0.66552 | 9043 ft | 263 kts | 245° |
| 2026-05-07 23:22 | 50.96979 | 0.63932 | 8908 ft | 263 kts | 245° |
| 2026-05-07 23:22 | 50.96190 | 0.61314 | 8767 ft | 264 kts | 245° |
| 2026-05-07 23:22 | 50.95398 | 0.58683 | 8626 ft | 265 kts | 245° |
| 2026-05-07 23:22 | 50.94608 | 0.56062 | 8495 ft | 263 kts | 245° |
| 2026-05-07 23:23 | 50.93821 | 0.53457 | 8350 ft | 261 kts | 245° |
| 2026-05-07 23:23 | 50.93036 | 0.50863 | 8215 ft | 261 kts | 245° |
| 2026-05-07 23:23 | 50.92249 | 0.48268 | 8091 ft | 261 kts | 245° |
| 2026-05-07 23:23 | 50.91515 | 0.45635 | 7942 ft | 261 kts | 256° |
| 2026-05-07 23:24 | 50.91488 | 0.42801 | 7826 ft | 258 kts | 281° |
| 2026-05-07 23:24 | 50.91937 | 0.40042 | 7696 ft | 259 kts | 286° |
| 2026-05-07 23:24 | 50.92469 | 0.37307 | 7552 ft | 260 kts | 287° |
| 2026-05-07 23:24 | 50.92995 | 0.34574 | 7417 ft | 258 kts | 286° |
| 2026-05-07 23:25 | 50.93499 | 0.31879 | 7264 ft | 252 kts | 286° |
| 2026-05-07 23:25 | 50.93984 | 0.29250 | 7128 ft | 246 kts | 286° |
| 2026-05-07 23:25 | 50.94467 | 0.26671 | 7031 ft | 241 kts | 290° |
| 2026-05-07 23:25 | 50.95308 | 0.24422 | 6873 ft | 236 kts | 309° |
| 2026-05-07 23:26 | 50.96352 | 0.22426 | 6635 ft | 234 kts | 309° |
| 2026-05-07 23:26 | 50.97374 | 0.20410 | 6242 ft | 237 kts | 309° |
| 2026-05-07 23:26 | 50.98405 | 0.18346 | 5828 ft | 240 kts | 308° |
| 2026-05-07 23:26 | 50.99422 | 0.16295 | 5476 ft | 239 kts | 308° |
| 2026-05-07 23:27 | 51.01454 | 0.12120 | 4840 ft | 238 kts | 301° |
| 2026-05-07 23:27 | 51.01893 | 0.09608 | 4463 ft | 239 kts | 272° |
| 2026-05-07 23:27 | 51.01978 | 0.06984 | 4155 ft | 238 kts | 272° |
| 2026-05-07 23:28 | 51.02073 | 0.04366 | 3970 ft | 237 kts | 272° |
| 2026-05-07 23:28 | 51.02175 | 0.01773 | 3789 ft | 234 kts | 272° |
| 2026-05-07 23:28 | 51.02275 | -0.00818 | 3487 ft | 235 kts | 272° |
| 2026-05-07 23:28 | 51.02379 | -0.03420 | 3095 ft | 237 kts | 272° |
| 2026-05-07 23:29 | 51.02485 | -0.06038 | 3040 ft | 239 kts | 272° |
| 2026-05-07 23:29 | 51.02594 | -0.08685 | 3011 ft | 241 kts | 272° |
| 2026-05-07 23:29 | 51.02705 | -0.11329 | 2996 ft | 239 kts | 272° |
| 2026-05-07 23:29 | 51.02814 | -0.13957 | 2994 ft | 237 kts | 272° |
| 2026-05-07 23:30 | 51.02923 | -0.16556 | 2990 ft | 234 kts | 272° |
| 2026-05-07 23:30 | 51.03030 | -0.19132 | 2993 ft | 233 kts | 272° |
| 2026-05-07 23:30 | 51.03136 | -0.21690 | 3000 ft | 230 kts | 272° |
| 2026-05-07 23:30 | 51.03238 | -0.24134 | 3004 ft | 214 kts | 272° |
| 2026-05-07 23:31 | 51.03334 | -0.26434 | 2992 ft | 206 kts | 272° |
| 2026-05-07 23:31 | 51.03426 | -0.28686 | 2991 ft | 203 kts | 272° |
| 2026-05-07 23:31 | 51.03515 | -0.30930 | 3004 ft | 204 kts | 272° |
| 2026-05-07 23:31 | 51.03602 | -0.33145 | 3008 ft | 196 kts | 272° |
| 2026-05-07 23:32 | 51.03688 | -0.35251 | 2993 ft | 186 kts | 272° |
| 2026-05-07 23:32 | 51.03770 | -0.37294 | 2999 ft | 184 kts | 272° |
| 2026-05-07 23:32 | 51.03852 | -0.39326 | 3000 ft | 184 kts | 271° |
| 2026-05-07 23:32 | 51.03933 | -0.41355 | 3000 ft | 184 kts | 271° |
| 2026-05-07 23:33 | 51.04013 | -0.43379 | 2995 ft | 183 kts | 271° |
| 2026-05-07 23:33 | 51.04090 | -0.45386 | 2998 ft | 182 kts | 271° |
| 2026-05-07 23:33 | 51.04168 | -0.47391 | 3008 ft | 182 kts | 271° |
| 2026-05-07 23:33 | 51.04262 | -0.49399 | 3008 ft | 183 kts | 278° |
| 2026-05-07 23:34 | 51.04692 | -0.51302 | 3007 ft | 185 kts | 302° |
| 2026-05-07 23:34 | 51.05548 | -0.52791 | 3012 ft | 184 kts | 326° |
| 2026-05-07 23:34 | 51.06699 | -0.53619 | 3018 ft | 181 kts | 350° |
| 2026-05-07 23:34 | 51.07944 | -0.53674 | 3020 ft | 179 kts | 13° |
| 2026-05-07 23:35 | 51.09094 | -0.52977 | 3019 ft | 177 kts | 36° |
| 2026-05-07 23:35 | 51.09973 | -0.51654 | 3008 ft | 174 kts | 61° |
| 2026-05-07 23:35 | 51.10400 | -0.49920 | 3021 ft | 171 kts | 73° |
| 2026-05-07 23:35 | 51.10761 | -0.48113 | 3015 ft | 171 kts | 77° |
| 2026-05-07 23:36 | 51.11056 | -0.46281 | 3008 ft | 171 kts | 79° |
| 2026-05-07 23:36 | 51.11321 | -0.44441 | 3000 ft | 170 kts | 79° |
| 2026-05-07 23:36 | 51.11575 | -0.42605 | 2975 ft | 170 kts | 80° |
| 2026-05-07 23:36 | 51.11827 | -0.40758 | 2804 ft | 171 kts | 80° |
| 2026-05-07 23:37 | 51.12080 | -0.38920 | 2573 ft | 168 kts | 80° |
| 2026-05-07 23:37 | 51.12324 | -0.37140 | 2361 ft | 160 kts | 80° |
| 2026-05-07 23:37 | 51.12555 | -0.35446 | 2140 ft | 154 kts | 81° |
| 2026-05-07 23:37 | 51.12782 | -0.33783 | 1933 ft | 153 kts | 81° |
| 2026-05-07 23:38 | 51.13006 | -0.32165 | 1727 ft | 150 kts | 80° |
| 2026-05-07 23:38 | 51.13224 | -0.30566 | 1534 ft | 146 kts | 80° |
| 2026-05-07 23:38 | 51.13441 | -0.28981 | 1353 ft | 146 kts | 80° |
| 2026-05-07 23:38 | 51.13659 | -0.27394 | 1117 ft | 145 kts | 79° |
| 2026-05-07 23:39 | 51.13876 | -0.25826 | 917 ft | 146 kts | 78° |
| 2026-05-07 23:39 | 51.14096 | -0.24233 | 722 ft | 149 kts | 78° |
| 2026-05-07 23:39 | 51.14320 | -0.22620 | 506 ft | 148 kts | 78° |
| 2026-05-07 23:39 | 51.14540 | -0.21034 | 304 ft | 147 kts | 78° |
| 2026-05-07 23:40 | 51.14751 | -0.19504 | 211 ft | 125 kts | 77° |
| 2026-05-07 23:40 | 51.14905 | -0.18387 | 210 ft | 81 kts | 78° |
| 2026-05-07 23:40 | 51.14992 | -0.17750 | 212 ft | 37 kts | 77° |
| 2026-05-07 23:40 | 51.15028 | -0.17503 | 213 ft | 19 kts | 74° |
| 2026-05-07 23:41 | 51.15078 | -0.17310 | 211 ft | 19 kts | 61° |
| 2026-05-07 23:41 | 51.15134 | -0.17215 | 208 ft | 9 kts | 11° |
| 2026-05-07 23:41 | 51.15191 | -0.17258 | 212 ft | 9 kts | 326° |
| 2026-05-07 23:41 | 51.15243 | -0.17316 | 210 ft | 9 kts | 326° |
| 2026-05-07 23:42 | 51.15309 | -0.17359 | 211 ft | 12 kts | 348° |
| 2026-05-07 23:42 | 51.15397 | -0.17390 | 211 ft | 14 kts | 348° |
| 2026-05-07 23:42 | 51.15494 | -0.17423 | 204 ft | 14 kts | 347° |
| 2026-05-07 23:42 | 51.15599 | -0.17459 | 207 ft | 16 kts | 348° |
| 2026-05-07 23:43 | 51.15703 | -0.17496 | 210 ft | 11 kts | 347° |
| 2026-05-07 23:43 | 51.15749 | -0.17547 | 209 ft | 8 kts | 287° |
| 2026-05-07 23:43 | 51.15743 | -0.17650 | 209 ft | 11 kts | 258° |
| 2026-05-07 23:43 | 51.15724 | -0.17790 | 204 ft | 14 kts | 257° |
| 2026-05-07 23:44 | 51.15703 | -0.17943 | 214 ft | 12 kts | 259° |
| 2026-05-07 23:44 | 51.15724 | -0.18037 | 208 ft | 10 kts | 334° |
| 2026-05-07 23:44 | 51.15795 | -0.18066 | 207 ft | 11 kts | 347° |
| 2026-05-07 23:44 | 51.15873 | -0.18094 | 208 ft | 12 kts | 347° |
| 2026-05-07 23:45 | 51.15957 | -0.18123 | 210 ft | 13 kts | 348° |
| 2026-05-07 23:45 | 51.16046 | -0.18153 | 204 ft | 14 kts | 348° |
| 2026-05-07 23:45 | 51.16134 | -0.18183 | 204 ft | 12 kts | 348° |
| 2026-05-07 23:45 | 51.16217 | -0.18211 | 208 ft | 11 kts | 348° |
| 2026-05-07 23:46 | 51.16272 | -0.18230 | 204 ft | 0 kts | 349° |
| 2026-05-07 23:46 | 51.16273 | -0.18229 | 204 ft | 0 kts | 1° |
| 2026-05-07 23:46 | 51.16275 | -0.18228 | 204 ft | 0 kts | 16° |
| 2026-05-07 23:46 | 51.16298 | -0.18184 | 204 ft | 15 kts | 67° |
| 2026-05-07 23:47 | 51.16307 | -0.18115 | 204 ft | 0 kts | 78° |
| 2026-05-07 23:47 | 51.16308 | -0.18107 | 204 ft | 1 kts | 77° |
| 2026-05-07 23:47 | 51.16312 | -0.18075 | 212 ft | 0 kts | 77° |